sensor_id;sensor_type;location;lat;lon;timestamp;P1;durP1;ratioP1;P2;durP2;ratioP2
13122;SDS011;6627;50.920;12.050;2022-11-11T00:01:08;24.93;;;10.83;;
13122;SDS011;6627;50.920;12.050;2022-11-11T00:03:39;13.87;;;9.67;;
13122;SDS011;6627;50.920;12.050;2022-11-11T00:06:08;18.83;;;9.67;;
13122;SDS011;6627;50.920;12.050;2022-11-11T00:08:37;13.27;;;9.20;;
13122;SDS011;6627;50.920;12.050;2022-11-11T00:11:06;16.50;;;9.10;;
13122;SDS011;6627;50.920;12.050;2022-11-11T00:13:37;16.83;;;10.00;;
13122;SDS011;6627;50.920;12.050;2022-11-11T00:16:09;18.60;;;9.73;;
13122;SDS011;6627;50.920;12.050;2022-11-11T00:18:40;20.70;;;10.37;;
13122;SDS011;6627;50.920;12.050;2022-11-11T00:21:27;17.27;;;10.00;;
13122;SDS011;6627;50.920;12.050;2022-11-11T00:24:18;21.47;;;10.77;;
13122;SDS011;6627;50.920;12.050;2022-11-11T00:26:46;18.73;;;10.27;;
13122;SDS011;6627;50.920;12.050;2022-11-11T00:29:13;20.33;;;9.77;;
13122;SDS011;6627;50.920;12.050;2022-11-11T00:31:42;17.90;;;10.10;;
13122;SDS011;6627;50.920;12.050;2022-11-11T00:34:23;15.57;;;9.80;;
13122;SDS011;6627;50.920;12.050;2022-11-11T00:36:51;12.93;;;9.20;;
13122;SDS011;6627;50.920;12.050;2022-11-11T00:39:17;16.70;;;9.83;;
13122;SDS011;6627;50.920;12.050;2022-11-11T00:41:44;16.23;;;9.00;;
13122;SDS011;6627;50.920;12.050;2022-11-11T00:44:12;13.30;;;8.80;;
13122;SDS011;6627;50.920;12.050;2022-11-11T00:46:39;13.30;;;8.93;;
13122;SDS011;6627;50.920;12.050;2022-11-11T00:49:26;12.60;;;8.90;;
13122;SDS011;6627;50.920;12.050;2022-11-11T00:52:10;10.80;;;8.40;;
13122;SDS011;6627;50.920;12.050;2022-11-11T00:54:38;13.57;;;8.73;;
13122;SDS011;6627;50.920;12.050;2022-11-11T00:57:05;17.40;;;9.07;;
13122;SDS011;6627;50.920;12.050;2022-11-11T00:59:33;14.93;;;8.30;;
13122;SDS011;6627;50.920;12.050;2022-11-11T01:02:00;16.47;;;8.47;;
13122;SDS011;6627;50.920;12.050;2022-11-11T01:04:29;16.37;;;9.07;;
13122;SDS011;6627;50.920;12.050;2022-11-11T01:06:57;14.27;;;8.83;;
13122;SDS011;6627;50.920;12.050;2022-11-11T01:09:25;11.97;;;8.90;;
13122;SDS011;6627;50.920;12.050;2022-11-11T01:11:52;18.53;;;9.77;;
13122;SDS011;6627;50.920;12.050;2022-11-11T01:14:19;17.20;;;10.00;;
13122;SDS011;6627;50.920;12.050;2022-11-11T01:16:47;14.43;;;9.83;;
13122;SDS011;6627;50.920;12.050;2022-11-11T01:19:14;18.47;;;10.33;;
13122;SDS011;6627;50.920;12.050;2022-11-11T01:21:43;17.27;;;10.03;;
13122;SDS011;6627;50.920;12.050;2022-11-11T01:24:10;14.57;;;9.63;;
13122;SDS011;6627;50.920;12.050;2022-11-11T01:26:37;16.47;;;9.57;;
13122;SDS011;6627;50.920;12.050;2022-11-11T01:29:05;13.70;;;9.60;;
13122;SDS011;6627;50.920;12.050;2022-11-11T01:31:32;18.30;;;10.43;;
13122;SDS011;6627;50.920;12.050;2022-11-11T01:34:00;16.10;;;9.67;;
13122;SDS011;6627;50.920;12.050;2022-11-11T01:36:27;19.83;;;10.20;;
13122;SDS011;6627;50.920;12.050;2022-11-11T01:38:57;14.60;;;10.20;;
13122;SDS011;6627;50.920;12.050;2022-11-11T01:41:27;16.90;;;9.37;;
13122;SDS011;6627;50.920;12.050;2022-11-11T01:44:01;12.53;;;9.07;;
13122;SDS011;6627;50.920;12.050;2022-11-11T01:46:44;15.07;;;9.43;;
13122;SDS011;6627;50.920;12.050;2022-11-11T01:49:20;14.50;;;8.60;;
13122;SDS011;6627;50.920;12.050;2022-11-11T01:51:56;11.83;;;8.43;;
13122;SDS011;6627;50.920;12.050;2022-11-11T01:54:31;13.67;;;8.67;;
13122;SDS011;6627;50.920;12.050;2022-11-11T01:57:04;15.90;;;8.37;;
13122;SDS011;6627;50.920;12.050;2022-11-11T01:59:37;15.10;;;8.43;;
13122;SDS011;6627;50.920;12.050;2022-11-11T02:02:10;15.27;;;8.17;;
13122;SDS011;6627;50.920;12.050;2022-11-11T02:04:44;15.47;;;9.40;;
13122;SDS011;6627;50.920;12.050;2022-11-11T02:07:32;16.53;;;9.23;;
13122;SDS011;6627;50.920;12.050;2022-11-11T02:10:03;20.90;;;9.30;;
13122;SDS011;6627;50.920;12.050;2022-11-11T02:12:34;16.70;;;9.33;;
13122;SDS011;6627;50.920;12.050;2022-11-11T02:15:19;19.50;;;9.70;;
13122;SDS011;6627;50.920;12.050;2022-11-11T02:17:47;20.00;;;11.30;;
13122;SDS011;6627;50.920;12.050;2022-11-11T02:20:16;19.10;;;8.57;;
13122;SDS011;6627;50.920;12.050;2022-11-11T02:22:50;15.10;;;8.57;;
13122;SDS011;6627;50.920;12.050;2022-11-11T02:25:26;17.23;;;8.60;;
13122;SDS011;6627;50.920;12.050;2022-11-11T02:27:58;11.90;;;7.43;;
13122;SDS011;6627;50.920;12.050;2022-11-11T02:30:31;10.43;;;7.40;;
13122;SDS011;6627;50.920;12.050;2022-11-11T02:32:59;12.53;;;7.30;;
13122;SDS011;6627;50.920;12.050;2022-11-11T02:35:29;16.87;;;7.67;;
13122;SDS011;6627;50.920;12.050;2022-11-11T02:37:58;14.97;;;7.57;;
13122;SDS011;6627;50.920;12.050;2022-11-11T02:40:34;12.00;;;7.33;;
13122;SDS011;6627;50.920;12.050;2022-11-11T02:43:25;17.23;;;7.30;;
13122;SDS011;6627;50.920;12.050;2022-11-11T02:45:53;12.13;;;7.23;;
13122;SDS011;6627;50.920;12.050;2022-11-11T02:48:21;12.77;;;7.60;;
13122;SDS011;6627;50.920;12.050;2022-11-11T02:50:52;13.57;;;7.30;;
13122;SDS011;6627;50.920;12.050;2022-11-11T02:53:20;12.90;;;6.90;;
13122;SDS011;6627;50.920;12.050;2022-11-11T02:55:55;12.63;;;7.03;;
13122;SDS011;6627;50.920;12.050;2022-11-11T02:58:22;12.07;;;7.03;;
13122;SDS011;6627;50.920;12.050;2022-11-11T03:01:05;17.53;;;7.13;;
13122;SDS011;6627;50.920;12.050;2022-11-11T03:03:33;14.00;;;7.33;;
13122;SDS011;6627;50.920;12.050;2022-11-11T03:06:00;13.40;;;7.67;;
13122;SDS011;6627;50.920;12.050;2022-11-11T03:08:27;12.63;;;7.50;;
13122;SDS011;6627;50.920;12.050;2022-11-11T03:10:58;12.03;;;7.30;;
13122;SDS011;6627;50.920;12.050;2022-11-11T03:13:25;16.03;;;7.77;;
13122;SDS011;6627;50.920;12.050;2022-11-11T03:15:52;16.07;;;8.10;;
13122;SDS011;6627;50.920;12.050;2022-11-11T03:18:20;14.77;;;7.43;;
13122;SDS011;6627;50.920;12.050;2022-11-11T03:20:46;14.53;;;7.50;;
13122;SDS011;6627;50.920;12.050;2022-11-11T03:23:31;12.47;;;7.43;;
13122;SDS011;6627;50.920;12.050;2022-11-11T03:26:00;13.17;;;7.93;;
13122;SDS011;6627;50.920;12.050;2022-11-11T03:28:27;12.67;;;6.97;;
13122;SDS011;6627;50.920;12.050;2022-11-11T03:30:55;10.53;;;7.00;;
13122;SDS011;6627;50.920;12.050;2022-11-11T03:33:23;13.10;;;7.57;;
13122;SDS011;6627;50.920;12.050;2022-11-11T03:35:50;13.17;;;8.43;;
13122;SDS011;6627;50.920;12.050;2022-11-11T03:38:17;16.93;;;10.77;;
13122;SDS011;6627;50.920;12.050;2022-11-11T03:40:48;20.80;;;11.03;;
13122;SDS011;6627;50.920;12.050;2022-11-11T03:43:20;20.70;;;12.33;;
13122;SDS011;6627;50.920;12.050;2022-11-11T03:45:49;16.93;;;10.77;;
13122;SDS011;6627;50.920;12.050;2022-11-11T03:48:17;35.17;;;21.23;;
13122;SDS011;6627;50.920;12.050;2022-11-11T03:50:45;29.03;;;18.17;;
13122;SDS011;6627;50.920;12.050;2022-11-11T03:53:13;32.73;;;18.43;;
13122;SDS011;6627;50.920;12.050;2022-11-11T03:55:41;29.60;;;17.57;;
13122;SDS011;6627;50.920;12.050;2022-11-11T03:58:09;20.10;;;13.47;;
13122;SDS011;6627;50.920;12.050;2022-11-11T04:00:38;23.33;;;13.63;;
13122;SDS011;6627;50.920;12.050;2022-11-11T04:03:06;23.83;;;12.13;;
13122;SDS011;6627;50.920;12.050;2022-11-11T04:05:53;15.60;;;8.73;;
13122;SDS011;6627;50.920;12.050;2022-11-11T04:08:41;17.83;;;8.27;;
13122;SDS011;6627;50.920;12.050;2022-11-11T04:11:28;12.53;;;7.80;;
13122;SDS011;6627;50.920;12.050;2022-11-11T04:14:00;11.47;;;7.67;;
13122;SDS011;6627;50.920;12.050;2022-11-11T04:16:52;16.90;;;7.90;;
13122;SDS011;6627;50.920;12.050;2022-11-11T04:19:20;12.87;;;7.23;;
13122;SDS011;6627;50.920;12.050;2022-11-11T04:22:05;10.50;;;7.07;;
13122;SDS011;6627;50.920;12.050;2022-11-11T04:24:32;13.27;;;7.03;;
13122;SDS011;6627;50.920;12.050;2022-11-11T04:27:18;10.67;;;6.93;;
13122;SDS011;6627;50.920;12.050;2022-11-11T04:29:46;10.43;;;5.93;;
13122;SDS011;6627;50.920;12.050;2022-11-11T04:32:14;11.23;;;6.47;;
13122;SDS011;6627;50.920;12.050;2022-11-11T04:35:04;16.00;;;6.80;;
13122;SDS011;6627;50.920;12.050;2022-11-11T04:37:35;12.07;;;6.97;;
13122;SDS011;6627;50.920;12.050;2022-11-11T04:40:17;11.37;;;6.60;;
13122;SDS011;6627;50.920;12.050;2022-11-11T04:43:02;14.43;;;7.57;;
13122;SDS011;6627;50.920;12.050;2022-11-11T04:45:29;11.53;;;6.97;;
13122;SDS011;6627;50.920;12.050;2022-11-11T04:47:58;16.07;;;7.73;;
13122;SDS011;6627;50.920;12.050;2022-11-11T04:50:28;12.83;;;6.73;;
13122;SDS011;6627;50.920;12.050;2022-11-11T04:52:57;10.67;;;6.50;;
13122;SDS011;6627;50.920;12.050;2022-11-11T04:55:25;10.40;;;7.10;;
13122;SDS011;6627;50.920;12.050;2022-11-11T04:58:11;13.27;;;7.67;;
13122;SDS011;6627;50.920;12.050;2022-11-11T05:00:39;12.50;;;7.70;;
13122;SDS011;6627;50.920;12.050;2022-11-11T05:03:09;17.40;;;7.40;;
13122;SDS011;6627;50.920;12.050;2022-11-11T05:05:45;12.80;;;7.33;;
13122;SDS011;6627;50.920;12.050;2022-11-11T05:08:33;13.30;;;7.30;;
13122;SDS011;6627;50.920;12.050;2022-11-11T05:11:21;15.20;;;8.63;;
13122;SDS011;6627;50.920;12.050;2022-11-11T05:13:50;23.90;;;12.77;;
13122;SDS011;6627;50.920;12.050;2022-11-11T05:16:37;19.60;;;11.80;;
13122;SDS011;6627;50.920;12.050;2022-11-11T05:19:27;14.70;;;11.00;;
13122;SDS011;6627;50.920;12.050;2022-11-11T05:22:13;18.73;;;8.33;;
13122;SDS011;6627;50.920;12.050;2022-11-11T05:24:47;15.73;;;8.40;;
13122;SDS011;6627;50.920;12.050;2022-11-11T05:27:47;16.37;;;8.00;;
13122;SDS011;6627;50.920;12.050;2022-11-11T05:30:14;13.73;;;8.03;;
13122;SDS011;6627;50.920;12.050;2022-11-11T05:32:43;16.20;;;8.90;;
13122;SDS011;6627;50.920;12.050;2022-11-11T05:35:12;20.87;;;8.77;;
13122;SDS011;6627;50.920;12.050;2022-11-11T05:37:41;17.17;;;7.70;;
13122;SDS011;6627;50.920;12.050;2022-11-11T05:40:09;10.63;;;7.03;;
13122;SDS011;6627;50.920;12.050;2022-11-11T05:42:41;21.30;;;7.57;;
13122;SDS011;6627;50.920;12.050;2022-11-11T05:45:09;14.07;;;7.20;;
13122;SDS011;6627;50.920;12.050;2022-11-11T05:47:36;15.03;;;7.43;;
13122;SDS011;6627;50.920;12.050;2022-11-11T05:50:03;18.23;;;8.50;;
13122;SDS011;6627;50.920;12.050;2022-11-11T05:52:34;11.77;;;7.23;;
13122;SDS011;6627;50.920;12.050;2022-11-11T05:55:02;12.47;;;7.60;;
13122;SDS011;6627;50.920;12.050;2022-11-11T05:57:29;16.33;;;7.90;;
13122;SDS011;6627;50.920;12.050;2022-11-11T05:59:57;14.47;;;7.37;;
13122;SDS011;6627;50.920;12.050;2022-11-11T06:02:24;18.00;;;7.70;;
13122;SDS011;6627;50.920;12.050;2022-11-11T06:04:52;14.23;;;8.03;;
13122;SDS011;6627;50.920;12.050;2022-11-11T06:07:19;15.93;;;8.20;;
13122;SDS011;6627;50.920;12.050;2022-11-11T06:09:48;12.37;;;7.67;;
13122;SDS011;6627;50.920;12.050;2022-11-11T06:12:15;14.83;;;8.23;;
13122;SDS011;6627;50.920;12.050;2022-11-11T06:14:42;14.80;;;8.17;;
13122;SDS011;6627;50.920;12.050;2022-11-11T06:17:10;12.10;;;7.17;;
13122;SDS011;6627;50.920;12.050;2022-11-11T06:19:37;15.07;;;8.20;;
13122;SDS011;6627;50.920;12.050;2022-11-11T06:22:04;16.73;;;7.97;;
13122;SDS011;6627;50.920;12.050;2022-11-11T06:24:31;20.40;;;8.97;;
13122;SDS011;6627;50.920;12.050;2022-11-11T06:27:00;13.83;;;7.37;;
13122;SDS011;6627;50.920;12.050;2022-11-11T06:29:26;13.20;;;7.20;;
13122;SDS011;6627;50.920;12.050;2022-11-11T06:31:54;17.03;;;7.70;;
13122;SDS011;6627;50.920;12.050;2022-11-11T06:34:21;17.67;;;7.50;;
13122;SDS011;6627;50.920;12.050;2022-11-11T06:36:48;12.50;;;7.30;;
13122;SDS011;6627;50.920;12.050;2022-11-11T06:39:16;13.80;;;7.60;;
13122;SDS011;6627;50.920;12.050;2022-11-11T06:41:43;15.53;;;7.17;;
13122;SDS011;6627;50.920;12.050;2022-11-11T06:44:12;15.60;;;7.40;;
13122;SDS011;6627;50.920;12.050;2022-11-11T06:46:39;13.93;;;7.27;;
13122;SDS011;6627;50.920;12.050;2022-11-11T06:49:06;18.53;;;8.20;;
13122;SDS011;6627;50.920;12.050;2022-11-11T06:51:34;13.07;;;7.30;;
13122;SDS011;6627;50.920;12.050;2022-11-11T06:54:02;9.97;;;6.97;;
13122;SDS011;6627;50.920;12.050;2022-11-11T06:56:29;16.50;;;7.40;;
13122;SDS011;6627;50.920;12.050;2022-11-11T06:58:56;15.30;;;7.13;;
13122;SDS011;6627;50.920;12.050;2022-11-11T07:01:25;13.50;;;7.30;;
13122;SDS011;6627;50.920;12.050;2022-11-11T07:03:53;12.83;;;7.67;;
13122;SDS011;6627;50.920;12.050;2022-11-11T07:06:20;14.63;;;7.70;;
13122;SDS011;6627;50.920;12.050;2022-11-11T07:08:48;12.70;;;7.03;;
13122;SDS011;6627;50.920;12.050;2022-11-11T07:11:15;13.57;;;7.17;;
13122;SDS011;6627;50.920;12.050;2022-11-11T07:13:42;13.83;;;7.83;;
13122;SDS011;6627;50.920;12.050;2022-11-11T07:16:10;13.17;;;7.10;;
13122;SDS011;6627;50.920;12.050;2022-11-11T07:18:38;14.57;;;7.23;;
13122;SDS011;6627;50.920;12.050;2022-11-11T07:21:06;16.17;;;7.73;;
13122;SDS011;6627;50.920;12.050;2022-11-11T07:23:33;13.57;;;6.93;;
13122;SDS011;6627;50.920;12.050;2022-11-11T07:26:01;13.47;;;7.03;;
13122;SDS011;6627;50.920;12.050;2022-11-11T07:28:28;17.70;;;7.73;;
13122;SDS011;6627;50.920;12.050;2022-11-11T07:30:56;12.20;;;6.97;;
13122;SDS011;6627;50.920;12.050;2022-11-11T07:33:23;14.03;;;7.37;;
13122;SDS011;6627;50.920;12.050;2022-11-11T07:35:52;14.53;;;7.10;;
13122;SDS011;6627;50.920;12.050;2022-11-11T07:38:19;10.60;;;6.87;;
13122;SDS011;6627;50.920;12.050;2022-11-11T07:40:47;14.13;;;7.93;;
13122;SDS011;6627;50.920;12.050;2022-11-11T07:43:14;11.97;;;7.17;;
13122;SDS011;6627;50.920;12.050;2022-11-11T07:45:42;15.27;;;8.30;;
13122;SDS011;6627;50.920;12.050;2022-11-11T07:48:09;14.50;;;7.00;;
13122;SDS011;6627;50.920;12.050;2022-11-11T07:50:37;12.90;;;6.97;;
13122;SDS011;6627;50.920;12.050;2022-11-11T07:53:05;12.43;;;7.20;;
13122;SDS011;6627;50.920;12.050;2022-11-11T07:55:33;11.83;;;6.67;;
13122;SDS011;6627;50.920;12.050;2022-11-11T07:58:00;11.77;;;6.80;;
13122;SDS011;6627;50.920;12.050;2022-11-11T08:00:28;13.10;;;5.97;;
13122;SDS011;6627;50.920;12.050;2022-11-11T08:02:55;11.90;;;6.27;;
13122;SDS011;6627;50.920;12.050;2022-11-11T08:05:23;13.67;;;6.93;;
13122;SDS011;6627;50.920;12.050;2022-11-11T08:07:50;14.27;;;8.30;;
13122;SDS011;6627;50.920;12.050;2022-11-11T08:10:19;12.97;;;7.93;;
13122;SDS011;6627;50.920;12.050;2022-11-11T08:12:52;28.50;;;13.50;;
13122;SDS011;6627;50.920;12.050;2022-11-11T08:15:37;19.53;;;9.27;;
13122;SDS011;6627;50.920;12.050;2022-11-11T08:18:04;17.13;;;7.60;;
13122;SDS011;6627;50.920;12.050;2022-11-11T08:20:31;19.17;;;6.87;;
13122;SDS011;6627;50.920;12.050;2022-11-11T08:22:59;17.50;;;8.57;;
13122;SDS011;6627;50.920;12.050;2022-11-11T08:25:30;22.30;;;9.83;;
13122;SDS011;6627;50.920;12.050;2022-11-11T08:27:58;38.13;;;13.83;;
13122;SDS011;6627;50.920;12.050;2022-11-11T08:30:27;29.87;;;14.07;;
13122;SDS011;6627;50.920;12.050;2022-11-11T08:32:56;21.10;;;9.40;;
13122;SDS011;6627;50.920;12.050;2022-11-11T08:35:23;18.43;;;10.43;;
13122;SDS011;6627;50.920;12.050;2022-11-11T08:37:52;24.20;;;10.33;;
13122;SDS011;6627;50.920;12.050;2022-11-11T08:40:20;18.43;;;9.83;;
13122;SDS011;6627;50.920;12.050;2022-11-11T08:42:50;22.50;;;9.97;;
13122;SDS011;6627;50.920;12.050;2022-11-11T08:45:21;13.20;;;6.60;;
13122;SDS011;6627;50.920;12.050;2022-11-11T08:47:48;17.87;;;6.97;;
13122;SDS011;6627;50.920;12.050;2022-11-11T08:50:16;14.53;;;7.27;;
13122;SDS011;6627;50.920;12.050;2022-11-11T08:52:46;10.70;;;6.27;;
13122;SDS011;6627;50.920;12.050;2022-11-11T08:55:14;9.73;;;5.80;;
13122;SDS011;6627;50.920;12.050;2022-11-11T08:57:41;11.63;;;5.57;;
13122;SDS011;6627;50.920;12.050;2022-11-11T09:00:11;12.47;;;5.23;;
13122;SDS011;6627;50.920;12.050;2022-11-11T09:02:41;11.43;;;4.70;;
13122;SDS011;6627;50.920;12.050;2022-11-11T09:05:08;10.90;;;5.43;;
13122;SDS011;6627;50.920;12.050;2022-11-11T09:07:36;10.43;;;4.40;;
13122;SDS011;6627;50.920;12.050;2022-11-11T09:10:03;10.60;;;5.67;;
13122;SDS011;6627;50.920;12.050;2022-11-11T09:12:32;9.03;;;5.07;;
13122;SDS011;6627;50.920;12.050;2022-11-11T09:14:59;11.67;;;5.30;;
13122;SDS011;6627;50.920;12.050;2022-11-11T09:17:28;7.53;;;5.00;;
13122;SDS011;6627;50.920;12.050;2022-11-11T09:19:55;11.97;;;5.23;;
13122;SDS011;6627;50.920;12.050;2022-11-11T09:22:23;11.07;;;5.20;;
13122;SDS011;6627;50.920;12.050;2022-11-11T09:24:50;12.83;;;5.13;;
13122;SDS011;6627;50.920;12.050;2022-11-11T09:27:17;10.00;;;4.70;;
13122;SDS011;6627;50.920;12.050;2022-11-11T09:29:44;14.27;;;4.33;;
13122;SDS011;6627;50.920;12.050;2022-11-11T09:32:12;10.73;;;4.77;;
13122;SDS011;6627;50.920;12.050;2022-11-11T09:34:41;10.73;;;4.30;;
13122;SDS011;6627;50.920;12.050;2022-11-11T09:37:08;9.80;;;4.17;;
13122;SDS011;6627;50.920;12.050;2022-11-11T09:39:35;12.20;;;4.00;;
13122;SDS011;6627;50.920;12.050;2022-11-11T09:42:05;10.10;;;4.60;;
13122;SDS011;6627;50.920;12.050;2022-11-11T09:44:57;8.47;;;4.03;;
13122;SDS011;6627;50.920;12.050;2022-11-11T09:47:37;13.63;;;3.80;;
13122;SDS011;6627;50.920;12.050;2022-11-11T09:50:20;9.30;;;3.30;;
13122;SDS011;6627;50.920;12.050;2022-11-11T09:52:51;8.20;;;3.80;;
13122;SDS011;6627;50.920;12.050;2022-11-11T09:55:27;6.67;;;2.93;;
13122;SDS011;6627;50.920;12.050;2022-11-11T09:58:03;6.60;;;3.37;;
13122;SDS011;6627;50.920;12.050;2022-11-11T10:00:39;7.50;;;3.20;;
13122;SDS011;6627;50.920;12.050;2022-11-11T10:03:13;9.00;;;3.33;;
13122;SDS011;6627;50.920;12.050;2022-11-11T10:05:48;8.40;;;3.40;;
13122;SDS011;6627;50.920;12.050;2022-11-11T10:08:24;9.93;;;3.30;;
13122;SDS011;6627;50.920;12.050;2022-11-11T10:10:56;6.10;;;3.13;;
13122;SDS011;6627;50.920;12.050;2022-11-11T10:13:26;6.80;;;2.47;;
13122;SDS011;6627;50.920;12.050;2022-11-11T10:15:59;5.53;;;2.87;;
13122;SDS011;6627;50.920;12.050;2022-11-11T10:18:40;6.10;;;2.47;;
13122;SDS011;6627;50.920;12.050;2022-11-11T10:21:28;4.50;;;2.23;;
13122;SDS011;6627;50.920;12.050;2022-11-11T10:24:05;10.53;;;2.40;;
13122;SDS011;6627;50.920;12.050;2022-11-11T10:26:42;5.67;;;2.10;;
13122;SDS011;6627;50.920;12.050;2022-11-11T10:29:14;4.60;;;2.03;;
13122;SDS011;6627;50.920;12.050;2022-11-11T10:31:45;5.53;;;2.40;;
13122;SDS011;6627;50.920;12.050;2022-11-11T10:34:23;5.03;;;2.53;;
13122;SDS011;6627;50.920;12.050;2022-11-11T10:37:00;6.93;;;2.10;;
13122;SDS011;6627;50.920;12.050;2022-11-11T10:39:31;2.87;;;1.87;;
13122;SDS011;6627;50.920;12.050;2022-11-11T10:42:12;4.13;;;1.70;;
13122;SDS011;6627;50.920;12.050;2022-11-11T10:44:43;3.07;;;1.53;;
13122;SDS011;6627;50.920;12.050;2022-11-11T10:47:12;2.93;;;1.50;;
13122;SDS011;6627;50.920;12.050;2022-11-11T10:49:45;4.43;;;1.57;;
13122;SDS011;6627;50.920;12.050;2022-11-11T10:52:21;5.10;;;1.30;;
13122;SDS011;6627;50.920;12.050;2022-11-11T10:54:54;3.27;;;1.30;;
13122;SDS011;6627;50.920;12.050;2022-11-11T10:57:31;2.97;;;1.23;;
13122;SDS011;6627;50.920;12.050;2022-11-11T11:00:03;4.90;;;1.40;;
13122;SDS011;6627;50.920;12.050;2022-11-11T11:02:33;3.37;;;1.53;;
13122;SDS011;6627;50.920;12.050;2022-11-11T11:05:08;2.80;;;1.53;;
13122;SDS011;6627;50.920;12.050;2022-11-11T11:07:43;4.13;;;1.87;;
13122;SDS011;6627;50.920;12.050;2022-11-11T11:10:13;2.97;;;1.10;;
13122;SDS011;6627;50.920;12.050;2022-11-11T11:12:48;7.40;;;3.17;;
13122;SDS011;6627;50.920;12.050;2022-11-11T11:15:25;3.63;;;1.20;;
13122;SDS011;6627;50.920;12.050;2022-11-11T11:17:56;2.10;;;1.20;;
13122;SDS011;6627;50.920;12.050;2022-11-11T11:20:30;3.37;;;1.20;;
13122;SDS011;6627;50.920;12.050;2022-11-11T11:22:58;3.93;;;1.60;;
13122;SDS011;6627;50.920;12.050;2022-11-11T11:25:27;3.67;;;1.20;;
13122;SDS011;6627;50.920;12.050;2022-11-11T11:28:05;3.87;;;1.30;;
13122;SDS011;6627;50.920;12.050;2022-11-11T11:30:35;3.00;;;1.53;;
13122;SDS011;6627;50.920;12.050;2022-11-11T11:33:03;2.90;;;1.10;;
13122;SDS011;6627;50.920;12.050;2022-11-11T11:35:34;3.30;;;1.20;;
13122;SDS011;6627;50.920;12.050;2022-11-11T11:38:05;2.37;;;1.40;;
13122;SDS011;6627;50.920;12.050;2022-11-11T11:40:45;1.73;;;1.20;;
13122;SDS011;6627;50.920;12.050;2022-11-11T11:43:26;3.10;;;1.40;;
13122;SDS011;6627;50.920;12.050;2022-11-11T11:46:00;2.50;;;1.33;;
13122;SDS011;6627;50.920;12.050;2022-11-11T11:51:42;5.53;;;1.67;;
13122;SDS011;6627;50.920;12.050;2022-11-11T11:54:27;2.70;;;1.80;;
13122;SDS011;6627;50.920;12.050;2022-11-11T11:57:24;2.10;;;1.00;;
13122;SDS011;6627;50.920;12.050;2022-11-11T12:00:13;4.47;;;1.30;;
13122;SDS011;6627;50.920;12.050;2022-11-11T12:03:03;1.80;;;1.20;;
13122;SDS011;6627;50.920;12.050;2022-11-11T12:05:52;2.17;;;1.13;;
13122;SDS011;6627;50.920;12.050;2022-11-11T12:08:33;2.50;;;1.30;;
13122;SDS011;6627;50.920;12.050;2022-11-11T12:11:22;2.17;;;1.20;;
13122;SDS011;6627;50.920;12.050;2022-11-11T12:17:21;3.37;;;1.03;;
13122;SDS011;6627;50.920;12.050;2022-11-11T12:20:01;2.33;;;0.90;;
13122;SDS011;6627;50.920;12.050;2022-11-11T12:22:49;3.30;;;1.07;;
13122;SDS011;6627;50.920;12.050;2022-11-11T12:25:36;1.53;;;1.20;;
13122;SDS011;6627;50.920;12.050;2022-11-11T12:28:28;1.70;;;1.03;;
13122;SDS011;6627;50.920;12.050;2022-11-11T12:31:21;1.50;;;1.00;;
13122;SDS011;6627;50.920;12.050;2022-11-11T12:34:17;4.00;;;1.20;;
13122;SDS011;6627;50.920;12.050;2022-11-11T12:37:05;0.87;;;0.83;;
13122;SDS011;6627;50.920;12.050;2022-11-11T12:39:50;3.20;;;1.20;;
13122;SDS011;6627;50.920;12.050;2022-11-11T12:42:38;2.33;;;1.10;;
13122;SDS011;6627;50.920;12.050;2022-11-11T12:45:25;4.80;;;1.33;;
13122;SDS011;6627;50.920;12.050;2022-11-11T12:48:03;2.03;;;1.20;;
13122;SDS011;6627;50.920;12.050;2022-11-11T12:50:44;5.17;;;1.50;;
13122;SDS011;6627;50.920;12.050;2022-11-11T12:53:24;2.20;;;0.90;;
13122;SDS011;6627;50.920;12.050;2022-11-11T12:56:04;3.03;;;1.40;;
13122;SDS011;6627;50.920;12.050;2022-11-11T12:58:43;2.73;;;1.40;;
13122;SDS011;6627;50.920;12.050;2022-11-11T13:01:24;3.27;;;1.03;;
13122;SDS011;6627;50.920;12.050;2022-11-11T13:10:16;4.30;;;1.07;;
13122;SDS011;6627;50.920;12.050;2022-11-11T13:12:58;2.47;;;1.20;;
13122;SDS011;6627;50.920;12.050;2022-11-11T13:15:48;3.43;;;0.90;;
13122;SDS011;6627;50.920;12.050;2022-11-11T13:18:19;1.27;;;0.77;;
13122;SDS011;6627;50.920;12.050;2022-11-11T13:20:56;3.30;;;0.83;;
13122;SDS011;6627;50.920;12.050;2022-11-11T13:23:29;2.37;;;1.20;;
13122;SDS011;6627;50.920;12.050;2022-11-11T13:26:03;2.00;;;0.90;;
13122;SDS011;6627;50.920;12.050;2022-11-11T13:28:46;2.77;;;1.10;;
13122;SDS011;6627;50.920;12.050;2022-11-11T13:31:18;4.00;;;1.13;;
13122;SDS011;6627;50.920;12.050;2022-11-11T13:34:03;5.27;;;1.33;;
13122;SDS011;6627;50.920;12.050;2022-11-11T13:36:40;2.37;;;1.27;;
13122;SDS011;6627;50.920;12.050;2022-11-11T13:39:21;2.23;;;1.03;;
13122;SDS011;6627;50.920;12.050;2022-11-11T13:41:56;2.03;;;1.23;;
13122;SDS011;6627;50.920;12.050;2022-11-11T13:44:28;3.63;;;1.50;;
13122;SDS011;6627;50.920;12.050;2022-11-11T13:47:01;2.90;;;1.33;;
13122;SDS011;6627;50.920;12.050;2022-11-11T13:49:41;2.30;;;1.57;;
13122;SDS011;6627;50.920;12.050;2022-11-11T13:52:19;3.00;;;1.43;;
13122;SDS011;6627;50.920;12.050;2022-11-11T13:54:56;2.43;;;1.20;;
13122;SDS011;6627;50.920;12.050;2022-11-11T13:57:31;3.17;;;1.33;;
13122;SDS011;6627;50.920;12.050;2022-11-11T14:00:22;2.63;;;1.17;;
13122;SDS011;6627;50.920;12.050;2022-11-11T14:12:19;5.07;;;1.37;;
13122;SDS011;6627;50.920;12.050;2022-11-11T14:14:58;3.00;;;1.23;;
13122;SDS011;6627;50.920;12.050;2022-11-11T14:17:28;5.60;;;1.50;;
13122;SDS011;6627;50.920;12.050;2022-11-11T14:19:56;2.03;;;1.10;;
13122;SDS011;6627;50.920;12.050;2022-11-11T14:22:28;1.77;;;1.30;;
13122;SDS011;6627;50.920;12.050;2022-11-11T14:25:17;2.70;;;1.17;;
13122;SDS011;6627;50.920;12.050;2022-11-11T14:27:50;2.70;;;1.40;;
13122;SDS011;6627;50.920;12.050;2022-11-11T14:30:28;2.27;;;1.20;;
13122;SDS011;6627;50.920;12.050;2022-11-11T14:33:07;4.83;;;1.20;;
13122;SDS011;6627;50.920;12.050;2022-11-11T14:35:53;3.50;;;1.40;;
13122;SDS011;6627;50.920;12.050;2022-11-11T14:38:40;4.80;;;1.43;;
13122;SDS011;6627;50.920;12.050;2022-11-11T14:47:17;5.27;;;1.80;;
13122;SDS011;6627;50.920;12.050;2022-11-11T14:49:57;5.20;;;1.90;;
13122;SDS011;6627;50.920;12.050;2022-11-11T14:52:27;3.23;;;1.80;;
13122;SDS011;6627;50.920;12.050;2022-11-11T14:55:09;5.70;;;1.70;;
13122;SDS011;6627;50.920;12.050;2022-11-11T14:57:45;3.43;;;1.70;;
13122;SDS011;6627;50.920;12.050;2022-11-11T15:00:16;5.20;;;1.80;;
13122;SDS011;6627;50.920;12.050;2022-11-11T15:02:48;5.27;;;1.80;;
13122;SDS011;6627;50.920;12.050;2022-11-11T15:05:23;3.73;;;1.60;;
13122;SDS011;6627;50.920;12.050;2022-11-11T15:08:13;3.73;;;1.63;;
13122;SDS011;6627;50.920;12.050;2022-11-11T15:11:04;4.83;;;1.73;;
13122;SDS011;6627;50.920;12.050;2022-11-11T15:13:56;3.63;;;1.97;;
13122;SDS011;6627;50.920;12.050;2022-11-11T15:16:52;1.80;;;1.53;;
13122;SDS011;6627;50.920;12.050;2022-11-11T15:19:32;3.50;;;1.87;;
13122;SDS011;6627;50.920;12.050;2022-11-11T15:22:14;5.20;;;1.73;;
13122;SDS011;6627;50.920;12.050;2022-11-11T15:24:58;3.57;;;2.00;;
13122;SDS011;6627;50.920;12.050;2022-11-11T15:27:36;2.40;;;1.50;;
13122;SDS011;6627;50.920;12.050;2022-11-11T15:30:15;2.53;;;1.80;;
13122;SDS011;6627;50.920;12.050;2022-11-11T15:32:50;5.40;;;2.23;;
13122;SDS011;6627;50.920;12.050;2022-11-11T15:35:33;5.77;;;2.07;;
13122;SDS011;6627;50.920;12.050;2022-11-11T15:38:08;4.73;;;2.23;;
13122;SDS011;6627;50.920;12.050;2022-11-11T15:40:41;3.00;;;2.30;;
13122;SDS011;6627;50.920;12.050;2022-11-11T15:43:17;7.10;;;2.50;;